Time;durP1;ratioP1;P1;durP2;ratioP2;P2;SDS_P1;SDS_P2;PMS_P1;PMS_P2;Temp;Humidity;BMP_temperature;BMP_pressure;BME280_temperature;BME280_humidity;BME280_pressure;Samples;Min_cycle;Max_cycle;Signal;HPM_P1;HPM_P2
2022/05/10 00:00:54;;;;;;;22.05;12.02;;;15.70;64.00;;;;;;5037462;28;20036;-87
2022/05/10 00:03:22;;;;;;;23.50;12.48;;;15.70;63.90;;;;;;5043464;28;20017;-86
2022/05/10 00:05:48;;;;;;;26.65;13.95;;;15.70;63.80;;;;;;5051643;28;20037;-86
2022/05/10 00:08:16;;;;;;;21.23;12.38;;;15.70;63.90;;;;;;5023841;28;20103;-86
2022/05/10 00:10:44;;;;;;;22.27;13.82;;;15.80;63.70;;;;;;5033337;28;20041;-87
2022/05/10 00:13:12;;;;;;;23.33;13.75;;;15.80;63.50;;;;;;5023026;28;20042;-87
2022/05/10 00:15:40;;;;;;;23.17;13.00;;;15.80;63.60;;;;;;5026910;28;20038;-87
2022/05/10 00:18:11;;;;;;;19.77;12.43;;;15.80;63.60;;;;;;5027542;28;20041;-87
2022/05/10 00:20:37;;;;;;;18.92;12.02;;;15.80;63.50;;;;;;5027438;28;20046;-88
2022/05/10 00:23:03;;;;;;;19.60;13.40;;;15.80;63.80;;;;;;5003373;28;20458;-87
2022/05/10 00:25:30;;;;;;;24.40;14.18;;;15.70;64.10;;;;;;5028001;28;20029;-88
2022/05/10 00:27:57;;;;;;;23.55;14.70;;;15.70;64.10;;;;;;5024952;28;20033;-87
2022/05/10 00:30:24;;;;;;;28.27;14.45;;;15.70;63.90;;;;;;5006946;28;20033;-88
2022/05/10 00:32:50;;;;;;;23.63;13.73;;;15.70;63.90;;;;;;5016501;28;20109;-89
2022/05/10 00:35:26;;;;;;;21.58;13.10;;;15.70;63.80;;;;;;5015948;28;20057;-88
2022/05/10 00:37:56;;;;;;;20.55;12.23;;;15.70;63.90;;;;;;5012010;28;20041;-88
2022/05/10 00:40:25;;;;;;;25.92;13.13;;;15.70;63.90;;;;;;5015821;28;20045;-87
2022/05/10 00:43:05;;;;;;;22.48;13.25;;;15.80;64.00;;;;;;5012909;28;20053;-88
2022/05/10 00:45:54;;;;;;;23.20;12.60;;;15.80;64.00;;;;;;5014379;28;20107;-87
2022/05/10 00:48:33;;;;;;;20.30;12.68;;;15.70;64.20;;;;;;5023856;28;20124;-88
2022/05/10 00:51:04;;;;;;;20.25;12.63;;;15.70;64.30;;;;;;5015446;28;20037;-87
2022/05/10 00:53:55;;;;;;;21.60;13.32;;;15.70;64.40;;;;;;5015245;28;20056;-87
2022/05/10 00:56:34;;;;;;;20.95;12.27;;;15.60;64.40;;;;;;5018279;28;20037;-87
2022/05/10 00:59:23;;;;;;;22.88;13.32;;;15.60;64.70;;;;;;5023499;28;20052;-88
2022/05/10 01:01:57;;;;;;;20.90;12.68;;;15.60;65.10;;;;;;5017621;28;20107;-87
2022/05/10 01:04:46;;;;;;;23.80;13.88;;;15.50;65.40;;;;;;5019739;28;20111;-86
2022/05/10 01:07:34;;;;;;;23.77;13.63;;;15.60;65.40;;;;;;5016780;28;20061;-87
2022/05/10 01:10:09;;;;;;;18.80;12.02;;;15.60;65.30;;;;;;5015447;28;20141;-88
2022/05/10 01:13:10;;;;;;;22.17;13.23;;;15.60;65.40;;;;;;5020805;28;20531;-87
2022/05/10 01:15:38;;;;;;;21.17;12.93;;;15.60;65.70;;;;;;5014100;28;20116;-87
2022/05/10 01:18:04;;;;;;;20.65;13.07;;;15.60;65.90;;;;;;5012457;28;20034;-87
2022/05/10 01:20:44;;;;;;;21.90;12.73;;;15.50;66.20;;;;;;5032322;28;20091;-87
2022/05/10 01:23:28;;;;;;;19.83;12.77;;;15.50;66.20;;;;;;5014137;28;20124;-88
2022/05/10 01:26:13;;;;;;;20.27;13.13;;;15.50;66.20;;;;;;5014016;28;20049;-86
2022/05/10 01:28:48;;;;;;;20.38;12.85;;;15.50;66.50;;;;;;5039770;28;20021;-86
2022/05/10 01:31:21;;;;;;;18.77;12.02;;;15.50;66.70;;;;;;5032534;28;20033;-87
2022/05/10 01:33:53;;;;;;;18.95;12.55;;;15.50;66.80;;;;;;5021563;28;20523;-87
2022/05/10 01:36:43;;;;;;;20.70;12.07;;;15.50;66.80;;;;;;5022674;28;20037;-88
2022/05/10 01:39:20;;;;;;;21.15;12.85;;;15.50;66.70;;;;;;5011794;28;20045;-86
2022/05/10 01:42:17;;;;;;;23.55;13.02;;;15.50;66.60;;;;;;5009489;28;20045;-88
2022/05/10 01:44:47;;;;;;;21.08;12.10;;;15.60;66.40;;;;;;5011448;28;20514;-87
2022/05/10 01:47:27;;;;;;;24.25;12.82;;;15.60;66.30;;;;;;5019471;28;20143;-86
2022/05/10 01:50:11;;;;;;;22.98;13.15;;;15.60;65.80;;;;;;5015761;28;20128;-86
2022/05/10 01:53:14;;;;;;;24.98;13.35;;;15.70;65.90;;;;;;5020330;28;20042;-86
2022/05/10 01:55:50;;;;;;;25.15;12.98;;;15.80;65.70;;;;;;5017308;28;20029;-86
2022/05/10 01:58:24;;;;;;;22.00;12.85;;;15.80;65.40;;;;;;5019017;28;20076;-87
2022/05/10 02:00:55;;;;;;;20.25;11.32;;;15.90;65.20;;;;;;5021743;28;20136;-86
2022/05/10 02:03:44;;;;;;;24.90;12.75;;;15.90;65.20;;;;;;5019642;28;20041;-87
2022/05/10 02:06:30;;;;;;;22.35;11.68;;;15.90;65.20;;;;;;5014158;28;20038;-87
2022/05/10 02:09:09;;;;;;;28.58;13.68;;;16.00;65.30;;;;;;5015477;28;20053;-87
2022/05/10 02:11:40;;;;;;;21.90;12.30;;;16.00;65.20;;;;;;5008445;28;20034;-89
2022/05/10 02:14:08;;;;;;;28.48;13.70;;;16.00;65.10;;;;;;5023582;28;20042;-86
2022/05/10 02:16:57;;;;;;;24.73;13.23;;;16.10;65.10;;;;;;5019384;28;20033;-86
2022/05/10 02:19:34;;;;;;;25.20;12.88;;;16.10;64.90;;;;;;5009251;28;20156;-86
2022/05/10 02:22:06;;;;;;;22.42;13.23;;;16.10;64.80;;;;;;5023106;28;20073;-87
2022/05/10 02:24:42;;;;;;;23.95;12.75;;;16.20;64.80;;;;;;5018294;28;20079;-86
2022/05/10 02:27:32;;;;;;;22.95;13.02;;;16.20;64.20;;;;;;5010455;28;20477;-87
2022/05/10 02:30:09;;;;;;;24.20;12.40;;;16.30;64.20;;;;;;5013565;28;20033;-86
2022/05/10 02:35:22;;;;;;;22.48;11.88;;;16.30;63.80;;;;;;5015440;28;20108;-86
2022/05/10 02:37:48;;;;;;;22.70;11.80;;;16.40;63.80;;;;;;5020181;28;20041;-88
2022/05/10 02:40:14;;;;;;;27.25;13.55;;;16.50;63.10;;;;;;5012532;28;20070;-88
2022/05/10 02:42:44;;;;;;;21.52;11.88;;;16.50;62.50;;;;;;5021403;28;20052;-87
2022/05/10 02:45:12;;;;;;;21.45;11.48;;;16.60;62.50;;;;;;5022885;28;20065;-87
2022/05/10 02:47:42;;;;;;;21.00;12.13;;;16.60;62.60;;;;;;5027293;28;20030;-89
2022/05/10 02:50:27;;;;;;;21.60;11.30;;;16.60;62.80;;;;;;5030425;28;20036;-87
2022/05/10 02:52:53;;;;;;;23.05;11.82;;;16.60;62.90;;;;;;5037279;28;20025;-86
2022/05/10 02:55:27;;;;;;;20.42;11.13;;;16.60;62.80;;;;;;5014067;28;20128;-87
2022/05/10 02:57:57;;;;;;;19.48;11.27;;;16.60;62.80;;;;;;5017479;28;20396;-86
2022/05/10 03:00:24;;;;;;;21.98;10.57;;;16.60;62.80;;;;;;5018704;28;20062;-87
2022/05/10 03:02:53;;;;;;;19.77;10.95;;;16.60;62.80;;;;;;5027731;28;20030;-87
2022/05/10 03:05:19;;;;;;;17.55;10.43;;;16.60;62.80;;;;;;5020141;28;20041;-88
2022/05/10 03:07:44;;;;;;;17.33;10.20;;;16.60;62.90;;;;;;5026054;28;20447;-88
2022/05/10 03:10:10;;;;;;;18.77;10.15;;;16.70;62.90;;;;;;5025315;28;20064;-87
2022/05/10 03:12:36;;;;;;;18.88;10.50;;;16.60;62.70;;;;;;5037754;28;20029;-88
2022/05/10 03:15:02;;;;;;;15.00;8.85;;;16.70;62.80;;;;;;5027428;28;20583;-87
2022/05/10 03:17:28;;;;;;;17.08;9.65;;;16.70;62.80;;;;;;5028462;28;20037;-87
2022/05/10 03:19:54;;;;;;;17.58;9.25;;;16.70;62.80;;;;;;5018461;28;20278;-87
2022/05/10 03:22:19;;;;;;;15.90;9.25;;;16.70;62.90;;;;;;5018939;28;20508;-86
2022/05/10 03:24:45;;;;;;;14.35;8.10;;;16.70;62.90;;;;;;5029168;28;20037;-87
2022/05/10 03:27:11;;;;;;;16.30;9.38;;;16.70;62.90;;;;;;5018049;28;20159;-87
2022/05/10 03:29:39;;;;;;;14.48;8.13;;;16.70;62.80;;;;;;5018945;28;20120;-87
2022/05/10 03:32:07;;;;;;;13.90;7.45;;;16.70;62.70;;;;;;5032860;28;20202;-86
2022/05/10 03:37:17;;;;;;;14.45;8.32;;;16.70;62.70;;;;;;5029793;28;20129;-89
2022/05/10 03:39:43;;;;;;;12.35;7.60;;;16.70;62.80;;;;;;5020364;28;20061;-88
2022/05/10 03:42:10;;;;;;;15.25;7.45;;;16.70;62.80;;;;;;5027640;28;20073;-88
2022/05/10 03:44:35;;;;;;;18.50;8.68;;;16.70;62.90;;;;;;5028978;28;20036;-87
2022/05/10 03:47:02;;;;;;;13.85;7.90;;;16.70;62.90;;;;;;5032551;28;20557;-87
2022/05/10 03:49:28;;;;;;;14.02;7.65;;;16.80;62.90;;;;;;5023293;28;20109;-88
2022/05/10 03:51:54;;;;;;;16.27;7.72;;;16.80;62.50;;;;;;5024044;28;20112;-86
2022/05/10 03:54:21;;;;;;;12.45;7.30;;;16.80;62.20;;;;;;5023785;28;21439;-88
2022/05/10 03:56:47;;;;;;;14.07;7.15;;;16.80;62.10;;;;;;5019933;28;20038;-87
2022/05/10 03:59:13;;;;;;;12.02;7.13;;;16.80;62.10;;;;;;5022863;28;20052;-88
2022/05/10 04:01:38;;;;;;;13.35;7.55;;;16.80;62.20;;;;;;5025826;28;20375;-89
2022/05/10 04:04:04;;;;;;;12.15;6.45;;;16.80;62.00;;;;;;5014810;28;20431;-87
2022/05/10 04:06:30;;;;;;;14.48;7.38;;;16.90;62.10;;;;;;5017982;28;20033;-88
2022/05/10 04:08:56;;;;;;;14.18;6.70;;;16.90;61.50;;;;;;5022693;28;20137;-86
2022/05/10 04:11:22;;;;;;;12.63;7.32;;;17.00;61.30;;;;;;5027451;28;20430;-87
2022/05/10 04:13:47;;;;;;;11.45;6.72;;;17.00;61.20;;;;;;5027134;28;20041;-87
2022/05/10 04:16:13;;;;;;;13.82;7.03;;;17.10;61.00;;;;;;5018184;28;20033;-86
2022/05/10 04:18:39;;;;;;;14.38;7.68;;;17.10;61.10;;;;;;5008755;28;20033;-88
2022/05/10 04:21:05;;;;;;;15.05;7.28;;;17.10;60.90;;;;;;5029460;28;20069;-86
2022/05/10 04:23:31;;;;;;;12.18;6.90;;;17.10;60.70;;;;;;5022999;28;20074;-88
2022/05/10 04:26:04;;;;;;;13.43;8.18;;;17.20;60.70;;;;;;5021862;28;20045;-87
2022/05/10 04:28:30;;;;;;;12.93;7.53;;;17.20;60.60;;;;;;5022257;28;20033;-89
2022/05/10 04:30:56;;;;;;;13.18;8.20;;;17.20;60.80;;;;;;5031275;28;20048;-89
2022/05/10 04:33:21;;;;;;;13.15;7.65;;;17.30;60.70;;;;;;5022259;28;20042;-88
2022/05/10 04:35:47;;;;;;;13.80;8.52;;;17.30;60.70;;;;;;5016228;28;20034;-87
2022/05/10 04:38:13;;;;;;;14.73;7.50;;;17.40;60.60;;;;;;5023188;28;20033;-88
2022/05/10 04:43:22;;;;;;;12.75;7.68;;;17.40;60.50;;;;;;5019934;28;20210;-90
2022/05/10 04:45:48;;;;;;;14.60;8.45;;;17.40;60.40;;;;;;4998902;28;20156;-87
2022/05/10 04:48:14;;;;;;;14.95;7.63;;;17.50;60.50;;;;;;5014004;28;20099;-89
2022/05/10 04:50:39;;;;;;;13.02;7.80;;;17.50;60.70;;;;;;5025139;28;20042;-87
2022/05/10 04:53:05;;;;;;;13.68;8.10;;;17.50;60.60;;;;;;5022034;28;20068;-90
2022/05/10 04:55:31;;;;;;;20.15;8.63;;;17.50;60.30;;;;;;5022922;28;20677;-87
2022/05/10 04:57:56;;;;;;;13.80;7.70;;;17.50;60.20;;;;;;5035326;28;20116;-85
2022/05/10 05:00:23;;;;;;;14.70;7.82;;;17.60;60.10;;;;;;5023047;28;20038;-86
2022/05/10 05:02:49;;;;;;;14.02;7.50;;;17.60;60.20;;;;;;5017996;28;20099;-84
2022/05/10 05:05:15;;;;;;;14.02;8.07;;;17.60;60.00;;;;;;5012132;28;20405;-86
2022/05/10 05:07:41;;;;;;;13.85;7.28;;;17.70;60.10;;;;;;5018058;28;20042;-87
2022/05/10 05:10:08;;;;;;;12.40;7.18;;;17.70;60.10;;;;;;5016719;28;20034;-85
2022/05/10 05:12:34;;;;;;;13.15;8.85;;;17.80;60.00;;;;;;5016878;28;20512;-86
2022/05/10 05:15:01;;;;;;;18.65;9.00;;;17.80;59.90;;;;;;5010762;28;20036;-88
2022/05/10 05:17:28;;;;;;;15.07;8.57;;;17.90;59.80;;;;;;5017810;28;20042;-84
2022/05/10 05:19:53;;;;;;;13.57;8.40;;;17.90;59.80;;;;;;5026553;28;20025;-86
2022/05/10 05:22:19;;;;;;;16.40;8.70;;;18.00;59.70;;;;;;5041653;28;20044;-87
2022/05/10 05:24:45;;;;;;;16.45;8.68;;;18.00;59.90;;;;;;5024891;28;20442;-88
2022/05/10 05:27:10;;;;;;;14.93;8.63;;;18.10;60.00;;;;;;5017091;28;20037;-86
2022/05/10 05:29:36;;;;;;;12.25;8.73;;;18.00;60.40;;;;;;5016743;28;20052;-87
2022/05/10 05:32:07;;;;;;;15.60;9.77;;;18.10;60.40;;;;;;5025457;28;20095;-86
2022/05/10 05:34:35;;;;;;;17.85;9.43;;;18.10;60.50;;;;;;5015169;28;20044;-83
2022/05/10 05:39:45;;;;;;;16.58;10.32;;;18.10;60.50;;;;;;5012428;28;20076;-82
2022/05/10 05:42:11;;;;;;;19.20;9.90;;;18.10;60.70;;;;;;5010777;28;20633;-83
2022/05/10 05:44:37;;;;;;;18.10;10.13;;;18.20;60.60;;;;;;5007090;28;20504;-82
2022/05/10 05:47:02;;;;;;;19.25;10.75;;;18.20;60.70;;;;;;5016549;28;20034;-84
2022/05/10 05:49:30;;;;;;;22.02;10.60;;;18.30;60.60;;;;;;5009602;28;20041;-81
2022/05/10 05:51:58;;;;;;;16.73;10.07;;;18.20;60.80;;;;;;5013107;28;20042;-81
2022/05/10 05:54:24;;;;;;;16.75;10.52;;;18.30;60.80;;;;;;4995994;28;20047;-82
2022/05/10 05:56:51;;;;;;;19.02;10.60;;;18.30;60.90;;;;;;5009969;28;20029;-81
2022/05/10 05:59:17;;;;;;;16.83;11.10;;;18.40;60.70;;;;;;5009929;28;20116;-83
2022/05/10 06:01:43;;;;;;;15.75;10.05;;;18.50;60.80;;;;;;5016282;28;20048;-81
2022/05/10 06:04:08;;;;;;;16.48;9.88;;;18.60;60.80;;;;;;5017831;28;20048;-81
2022/05/10 06:06:34;;;;;;;23.65;10.35;;;18.60;60.50;;;;;;5012621;28;20439;-80
2022/05/10 06:09:00;;;;;;;19.55;10.50;;;18.60;60.70;;;;;;5019093;28;20124;-81
2022/05/10 06:11:26;;;;;;;17.25;10.20;;;18.60;60.40;;;;;;5012293;28;20072;-81
2022/05/10 06:13:52;;;;;;;15.93;10.45;;;18.70;60.60;;;;;;4995479;28;20075;-82
2022/05/10 06:16:17;;;;;;;17.33;10.88;;;18.80;60.30;;;;;;5016971;28;20091;-81
2022/05/10 06:18:43;;;;;;;17.30;9.45;;;18.90;60.10;;;;;;5011861;28;20455;-82
2022/05/10 06:21:10;;;;;;;17.42;10.07;;;19.00;60.10;;;;;;5005978;28;20325;-79
2022/05/10 06:23:35;;;;;;;15.73;10.15;;;19.00;59.60;;;;;;5017565;28;20060;-81
2022/05/10 06:26:01;;;;;;;15.88;9.88;;;19.10;59.50;;;;;;5003260;28;20042;-80
2022/05/10 06:28:29;;;;;;;17.70;10.38;;;19.10;59.50;;;;;;5014654;28;20406;-81
2022/05/10 06:30:56;;;;;;;18.42;10.60;;;19.30;59.40;;;;;;5012015;28;20038;-81
2022/05/10 06:33:21;;;;;;;15.50;10.80;;;19.30;59.20;;;;;;5006814;28;20037;-79
2022/05/10 06:35:48;;;;;;;15.93;11.45;;;19.40;59.20;;;;;;5008744;28;20029;-80
2022/05/10 06:38:16;;;;;;;14.77;10.45;;;19.40;58.90;;;;;;5014832;28;20029;-80
2022/05/10 06:40:43;;;;;;;14.55;11.13;;;19.50;58.70;;;;;;5009650;28;20480;-81
2022/05/10 06:43:09;;;;;;;15.00;10.95;;;19.40;58.80;;;;;;5000891;28;20099;-81
2022/05/10 06:45:35;;;;;;;14.23;10.25;;;19.50;58.80;;;;;;5011778;28;20155;-82
2022/05/10 06:48:01;;;;;;;18.08;11.18;;;19.60;58.70;;;;;;5022370;28;20493;-82
2022/05/10 06:50:27;;;;;;;13.95;10.55;;;19.60;58.50;;;;;;5006406;28;20037;-80
2022/05/10 06:52:57;;;;;;;14.88;10.55;;;19.60;58.60;;;;;;5010496;28;20083;-83
2022/05/10 06:55:23;;;;;;;13.73;10.25;;;19.70;58.50;;;;;;5000976;28;20030;-84
2022/05/10 06:57:49;;;;;;;15.65;10.48;;;19.70;58.50;;;;;;5013235;28;20113;-82
2022/05/10 07:00:17;;;;;;;15.30;10.45;;;19.90;58.50;;;;;;5009423;28;20053;-80
2022/05/10 07:02:43;;;;;;;19.35;10.75;;;20.10;58.10;;;;;;5006013;28;20392;-81
2022/05/10 07:05:10;;;;;;;16.08;10.00;;;20.10;57.50;;;;;;5002699;28;20041;-81
2022/05/10 07:07:36;;;;;;;15.45;10.30;;;20.30;57.10;;;;;;5007968;28;20095;-82
2022/05/10 07:10:04;;;;;;;14.85;10.73;;;20.40;57.20;;;;;;5002006;28;20050;-79
2022/05/10 07:12:30;;;;;;;17.05;9.82;;;20.40;56.90;;;;;;5013522;28;20079;-82
2022/05/10 07:14:57;;;;;;;13.30;9.98;;;20.40;56.90;;;;;;5017412;28;20045;-80
2022/05/10 07:17:23;;;;;;;15.70;10.45;;;20.60;56.60;;;;;;5018798;28;20658;-82
2022/05/10 07:19:48;;;;;;;14.88;10.52;;;20.50;56.20;;;;;;5002390;28;20647;-80
2022/05/10 07:22:14;;;;;;;20.98;9.90;;;20.60;56.60;;;;;;5010809;28;20045;-80
2022/05/10 07:24:40;;;;;;;12.82;10.35;;;20.60;56.30;;;;;;5010154;28;20385;-80
2022/05/10 07:27:06;;;;;;;20.08;11.85;;;20.60;55.80;;;;;;5010525;28;20079;-79
2022/05/10 07:29:31;;;;;;;15.80;10.38;;;20.60;55.90;;;;;;5007625;28;20049;-81
2022/05/10 07:31:57;;;;;;;17.88;10.55;;;20.70;56.10;;;;;;5022975;28;20374;-82
2022/05/10 07:34:23;;;;;;;16.95;10.88;;;20.80;56.10;;;;;;5018157;28;20577;-80
2022/05/10 07:36:49;;;;;;;14.70;10.43;;;20.80;56.30;;;;;;5016277;28;20045;-80
2022/05/10 07:39:15;;;;;;;13.20;9.82;;;21.00;55.70;;;;;;5010257;28;20470;-84
2022/05/10 07:41:41;;;;;;;14.25;9.57;;;21.10;55.20;;;;;;5011581;28;20445;-80
2022/05/10 07:44:08;;;;;;;17.88;9.50;;;21.10;55.20;;;;;;5015093;28;20038;-81
2022/05/10 07:46:34;;;;;;;13.02;9.35;;;21.30;54.80;;;;;;5021245;28;20029;-80
2022/05/10 07:49:00;;;;;;;15.77;9.13;;;21.50;54.90;;;;;;5019306;28;20108;-80
2022/05/10 07:51:26;;;;;;;15.80;8.57;;;21.70;54.40;;;;;;5007670;28;20046;-80
2022/05/10 07:53:52;;;;;;;14.70;9.32;;;22.00;53.20;;;;;;5006007;28;20048;-82
2022/05/10 07:56:18;;;;;;;12.48;8.90;;;22.20;52.70;;;;;;5009295;28;20037;-79
2022/05/10 07:58:43;;;;;;;15.20;9.18;;;22.40;52.70;;;;;;5005578;28;20244;-82
2022/05/10 08:01:09;;;;;;;16.60;8.95;;;22.60;52.20;;;;;;5017870;28;20497;-83
2022/05/10 08:03:35;;;;;;;16.35;9.10;;;22.80;51.40;;;;;;5013330;28;20085;-81
2022/05/10 08:06:01;;;;;;;13.32;8.68;;;22.90;51.50;;;;;;5029248;28;20524;-80
2022/05/10 08:08:28;;;;;;;13.18;8.98;;;23.10;50.80;;;;;;5021516;28;20042;-80
2022/05/10 08:10:54;;;;;;;11.45;8.63;;;23.20;50.40;;;;;;5021628;28;20084;-81
2022/05/10 08:13:31;;;;;;;12.80;8.77;;;23.40;49.90;;;;;;5019633;28;20236;-80
2022/05/10 08:15:58;;;;;;;15.48;8.65;;;23.40;50.00;;;;;;5017069;28;20042;-82
2022/05/10 08:18:25;;;;;;;11.55;7.60;;;23.50;49.70;;;;;;5011679;28;20262;-80
2022/05/10 08:20:52;;;;;;;14.48;8.02;;;23.50;49.60;;;;;;5013255;28;20073;-81
2022/05/10 08:23:24;;;;;;;12.55;7.65;;;23.50;48.80;;;;;;5011277;28;20181;-81
2022/05/10 08:25:51;;;;;;;12.95;7.35;;;23.70;48.30;;;;;;5008472;28;20587;-80
2022/05/10 08:28:17;;;;;;;12.45;7.90;;;23.70;48.30;;;;;;5024331;28;20083;-80
2022/05/10 08:30:46;;;;;;;12.00;6.57;;;23.70;48.70;;;;;;5008424;28;20058;-81
2022/05/10 08:33:17;;;;;;;11.63;6.60;;;23.70;48.70;;;;;;5015936;28;20042;-81
2022/05/10 08:35:42;;;;;;;14.70;6.82;;;23.80;48.00;;;;;;5033786;28;20033;-84
2022/05/10 08:38:09;;;;;;;11.40;6.43;;;23.90;48.30;;;;;;5021228;28;20045;-84
2022/05/10 08:40:42;;;;;;;12.27;6.30;;;24.10;47.60;;;;;;5016802;28;20050;-82
2022/05/10 08:43:17;;;;;;;9.05;5.35;;;24.10;46.90;;;;;;5010023;28;20045;-80
2022/05/10 08:45:45;;;;;;;11.93;5.93;;;24.40;46.20;;;;;;5006408;28;20030;-81
2022/05/10 08:48:10;;;;;;;14.40;6.10;;;24.60;45.70;;;;;;5018789;28;20042;-80
2022/05/10 08:50:38;;;;;;;16.17;6.25;;;24.70;45.20;;;;;;5025350;28;20052;-82
2022/05/10 08:53:07;;;;;;;9.77;5.57;;;24.80;45.20;;;;;;5009784;28;20485;-82
2022/05/10 08:55:38;;;;;;;11.45;5.13;;;25.00;44.70;;;;;;5015508;28;20029;-81
2022/05/10 08:58:29;;;;;;;10.30;5.28;;;25.10;44.50;;;;;;5010179;28;20035;-81
2022/05/10 09:00:57;;;;;;;12.13;5.53;;;25.50;43.40;;;;;;5012464;28;20045;-83
2022/05/10 09:03:55;;;;;;;13.85;5.50;;;25.50;42.80;;;;;;5016634;28;20472;-81
2022/05/10 09:06:59;;;;;;;9.43;5.13;;;25.20;42.90;;;;;;5017324;28;20046;-80
2022/05/10 09:09:33;;;;;;;10.93;4.80;;;24.70;43.30;;;;;;5013507;28;20034;-83
2022/05/10 09:12:04;;;;;;;10.10;4.78;;;24.80;44.20;;;;;;5012563;28;20055;-82
2022/05/10 09:14:34;;;;;;;10.75;5.53;;;25.00;43.60;;;;;;5020344;28;20047;-79
2022/05/10 09:17:03;;;;;;;10.70;5.00;;;24.90;43.60;;;;;;5025355;28;20033;-82
2022/05/10 09:19:40;;;;;;;10.68;4.60;;;25.20;43.90;;;;;;5006704;28;20065;-83
2022/05/10 09:22:33;;;;;;;10.55;4.68;;;25.10;43.90;;;;;;5019894;28;20033;-81
2022/05/10 09:24:59;;;;;;;10.48;4.32;;;25.60;42.70;;;;;;5014681;28;20115;-81
2022/05/10 09:27:31;;;;;;;10.50;4.68;;;25.60;41.60;;;;;;5017397;28;20121;-81
2022/05/10 09:29:57;;;;;;;12.38;4.95;;;25.80;41.30;;;;;;5014633;28;20480;-81
2022/05/10 09:35:22;;;;;;;11.48;4.80;;;26.50;41.00;;;;;;5008607;28;20056;-81
2022/05/10 09:37:53;;;;;;;9.48;4.70;;;26.60;41.20;;;;;;5011031;28;20041;-82
2022/05/10 09:40:56;;;;;;;10.77;4.82;;;26.30;40.90;;;;;;5013525;28;20623;-82
2022/05/10 09:43:32;;;;;;;8.73;4.82;;;26.20;40.40;;;;;;4935246;28;20809;-82
2022/05/10 09:46:18;;;;;;;11.35;4.43;;;26.10;41.30;;;;;;4924480;28;20639;-81
2022/05/10 09:48:44;;;;;;;8.73;4.10;;;25.90;41.10;;;;;;4990183;28;20459;-80
2022/05/10 09:51:32;;;;;;;8.40;4.35;;;25.50;41.80;;;;;;5017780;28;20103;-83
2022/05/10 09:53:58;;;;;;;9.43;4.53;;;25.50;42.30;;;;;;5009479;28;20040;-80
2022/05/10 09:56:24;;;;;;;10.23;4.20;;;25.60;41.50;;;;;;5008986;28;20042;-82
2022/05/10 09:59:02;;;;;;;9.35;3.95;;;25.60;41.50;;;;;;5011091;28;20065;-82
2022/05/10 10:01:41;;;;;;;7.63;3.83;;;25.70;41.50;;;;;;5007225;28;20049;-81
2022/05/10 10:04:28;;;;;;;11.05;4.68;;;25.80;41.00;;;;;;5015760;28;20044;-81
2022/05/10 10:07:07;;;;;;;11.95;3.92;;;25.50;40.90;;;;;;5018698;28;20378;-83
2022/05/10 10:09:38;;;;;;;11.00;3.60;;;25.50;40.90;;;;;;5007926;28;21355;-81
2022/05/10 10:12:12;;;;;;;10.63;3.95;;;25.50;40.10;;;;;;5009860;28;20459;-80
2022/05/10 10:14:46;;;;;;;9.50;4.05;;;25.40;40.40;;;;;;5015004;28;20291;-82
2022/05/10 10:17:19;;;;;;;9.32;4.10;;;25.10;40.80;;;;;;5014787;28;20159;-81
2022/05/10 10:19:51;;;;;;;11.15;3.80;;;25.10;41.60;;;;;;5013756;28;20048;-81
2022/05/10 10:22:41;;;;;;;10.80;3.58;;;25.60;40.00;;;;;;5020444;28;20044;-79
2022/05/10 10:25:41;;;;;;;9.38;3.80;;;25.80;39.70;;;;;;4998376;28;20045;-81
2022/05/10 10:28:34;;;;;;;8.35;3.70;;;25.80;39.60;;;;;;4970728;28;20045;-82
2022/05/10 10:31:28;;;;;;;11.45;4.40;;;25.40;40.60;;;;;;5007338;28;20042;-84
2022/05/10 10:34:22;;;;;;;8.40;3.83;;;25.10;42.10;;;;;;5000640;28;20477;-82
2022/05/10 10:37:11;;;;;;;6.90;3.97;;;25.40;41.30;;;;;;5002297;28;20049;-82
2022/05/10 10:39:58;;;;;;;10.25;3.67;;;25.60;40.10;;;;;;5002831;28;20468;-81
2022/05/10 10:42:51;;;;;;;9.40;4.07;;;26.00;39.60;;;;;;5004223;28;20058;-80
2022/05/10 10:45:18;;;;;;;10.55;3.90;;;26.00;39.60;;;;;;5004568;28;20071;-80
2022/05/10 10:48:02;;;;;;;10.57;4.10;;;26.30;38.30;;;;;;5018571;28;20034;-81
2022/05/10 10:50:32;;;;;;;7.40;4.18;;;26.10;39.00;;;;;;4999456;28;20346;-81
2022/05/10 10:52:59;;;;;;;10.60;4.35;;;26.00;39.90;;;;;;5004816;28;20045;-80
2022/05/10 10:55:43;;;;;;;7.95;3.58;;;25.90;39.50;;;;;;5000971;28;20057;-83
2022/05/10 10:58:39;;;;;;;9.15;3.47;;;26.00;40.20;;;;;;5006497;28;20033;-83
2022/05/10 11:01:36;;;;;;;7.82;3.78;;;25.80;39.50;;;;;;5003575;28;20153;-81
2022/05/10 11:04:22;;;;;;;10.15;4.30;;;26.30;40.10;;;;;;5002992;28;20609;-84
2022/05/10 11:06:53;;;;;;;8.77;3.90;;;26.40;39.70;;;;;;5008424;28;20052;-80
2022/05/10 11:09:47;;;;;;;8.93;3.97;;;26.60;38.80;;;;;;5014509;28;20064;-82
2022/05/10 11:12:40;;;;;;;9.45;4.65;;;27.00;39.40;;;;;;5006301;28;20536;-83
2022/05/10 11:15:20;;;;;;;10.00;4.45;;;27.20;38.40;;;;;;4999223;28;20808;-82
2022/05/10 11:18:15;;;;;;;8.48;4.53;;;27.10;39.10;;;;;;4995959;28;20092;-82
2022/05/10 11:20:55;;;;;;;9.15;4.15;;;26.80;38.90;;;;;;4992770;28;20105;-82
2022/05/10 11:23:35;;;;;;;9.65;4.72;;;26.80;40.20;;;;;;5000234;28;20060;-84
2022/05/10 11:26:21;;;;;;;11.32;4.65;;;26.70;39.10;;;;;;5002802;28;20112;-85
2022/05/10 11:29:11;;;;;;;11.00;4.10;;;26.60;39.60;;;;;;4995849;28;20053;-81
2022/05/10 11:32:07;;;;;;;8.18;3.85;;;26.40;40.00;;;;;;4998088;28;20471;-83
2022/05/10 11:34:53;;;;;;;8.32;3.63;;;26.40;39.00;;;;;;5016066;28;20034;-82
2022/05/10 11:37:28;;;;;;;11.23;4.40;;;26.50;39.60;;;;;;5003778;28;21199;-82
2022/05/10 11:40:01;;;;;;;12.70;3.75;;;26.50;38.70;;;;;;5005496;28;20037;-83
2022/05/10 11:42:45;;;;;;;8.43;4.07;;;26.50;38.00;;;;;;5005608;28;20064;-80
2022/05/10 11:45:44;;;;;;;10.20;4.18;;;26.50;38.10;;;;;;5017372;28;20041;-82
2022/05/10 11:48:41;;;;;;;9.35;4.80;;;26.50;38.60;;;;;;5018075;28;20037;-80
2022/05/10 11:54:31;;;;;;;9.00;3.83;;;26.10;39.40;;;;;;5011365;28;20045;-80
2022/05/10 11:56:58;;;;;;;11.07;4.57;;;26.00;39.50;;;;;;5022454;28;20042;-80
2022/05/10 11:59:32;;;;;;;15.40;4.65;;;26.00;39.50;;;;;;5013142;28;20037;-80
2022/05/10 12:02:00;;;;;;;6.97;4.47;;;25.80;40.10;;;;;;5014536;28;20127;-83
2022/05/10 12:04:38;;;;;;;12.05;4.00;;;25.70;41.40;;;;;;5023854;28;20072;-86
2022/05/10 12:07:19;;;;;;;8.30;4.47;;;25.80;41.00;;;;;;5016765;28;20468;-80
2022/05/10 12:10:04;;;;;;;8.00;4.00;;;26.20;40.80;;;;;;5015154;28;20041;-81
2022/05/10 12:12:32;;;;;;;8.48;3.90;;;26.60;39.10;;;;;;5012292;28;20127;-81
2022/05/10 12:23:59;;;;;;;8.70;4.50;;;26.40;39.40;;;;;;5011657;28;20041;-79
2022/05/10 12:26:52;;;;;;;8.45;4.05;;;26.70;38.40;;;;;;5010625;28;20384;-80
2022/05/10 12:29:39;;;;;;;8.20;4.30;;;26.60;39.10;;;;;;4996021;28;20112;-80
2022/05/10 12:32:09;;;;;;;8.50;4.68;;;26.50;39.90;;;;;;5017564;28;20118;-82
2022/05/10 12:34:38;;;;;;;10.77;4.13;;;26.50;40.90;;;;;;5011576;28;20503;-80
2022/05/10 12:37:24;;;;;;;10.13;4.30;;;26.40;40.30;;;;;;5010368;28;20041;-81
2022/05/10 12:40:11;;;;;;;10.95;3.78;;;26.40;39.40;;;;;;5014349;28;20050;-81
2022/05/10 12:42:49;;;;;;;9.27;3.90;;;26.30;39.40;;;;;;5017132;28;20403;-82
2022/05/10 12:45:51;;;;;;;8.23;3.97;;;26.00;39.60;;;;;;5009454;28;20049;-81
2022/05/10 12:48:22;;;;;;;11.23;3.80;;;26.00;38.70;;;;;;5012239;28;20065;-82
2022/05/10 12:51:15;;;;;;;8.55;3.20;;;26.10;38.70;;;;;;5021159;28;20037;-80
2022/05/10 12:54:02;;;;;;;10.55;3.90;;;26.50;37.90;;;;;;5013782;28;20499;-81
2022/05/10 12:57:07;;;;;;;8.68;3.20;;;26.60;36.80;;;;;;5019168;28;20465;-79
2022/05/10 13:00:07;;;;;;;11.75;3.33;;;25.90;37.80;;;;;;4986894;28;20034;-82
2022/05/10 13:02:34;;;;;;;10.90;3.55;;;26.30;37.30;;;;;;5011719;28;20049;-82
2022/05/10 13:05:06;;;;;;;7.53;3.22;;;26.50;36.90;;;;;;5015956;28;20037;-81
2022/05/10 13:08:09;;;;;;;11.95;3.10;;;26.50;37.20;;;;;;5010807;28;20048;-80
2022/05/10 13:10:36;;;;;;;13.10;3.20;;;26.10;37.90;;;;;;5015368;28;20034;-81
2022/05/10 13:13:15;;;;;;;8.40;3.38;;;26.50;36.80;;;;;;5015267;28;20092;-82
2022/05/10 13:15:45;;;;;;;10.73;3.70;;;25.90;37.10;;;;;;5018295;28;20041;-80
2022/05/10 13:18:16;;;;;;;10.98;3.75;;;26.10;37.70;;;;;;5016104;28;20045;-83
2022/05/10 13:20:50;;;;;;;8.30;3.38;;;25.80;38.00;;;;;;5021271;28;20049;-82
2022/05/10 13:23:17;;;;;;;;;;;26.00;38.70;;;;;;5015145;28;20100;-81
2022/05/10 13:25:43;;;;;;;13.18;3.50;;;25.80;37.90;;;;;;5018302;28;19928;-83
2022/05/10 13:28:21;;;;;;;13.63;3.75;;;25.80;37.90;;;;;;5009246;28;20052;-82
2022/05/10 13:30:52;;;;;;;9.98;3.70;;;25.40;38.70;;;;;;5015428;28;20056;-81